Time;durP1;ratioP1;P1;durP2;ratioP2;P2;SDS_P1;SDS_P2;PMS_P1;PMS_P2;Temp;Humidity;BMP_temperature;BMP_pressure;BME280_temperature;BME280_humidity;BME280_pressure;Samples;Min_cycle;Max_cycle;Signal;HPM_P1;HPM_P2
2023/09/22 00:01:37;;;;;;;20.90;10.95;;;;;;;13.32;100.00;99776.63;5049719;28;20479;-61
2023/09/22 00:04:02;;;;;;;28.73;12.40;;;;;;;13.33;100.00;99778.31;5048565;28;20021;-61
2023/09/22 00:06:27;;;;;;;20.27;10.68;;;;;;;13.32;100.00;99773.97;5050931;28;20025;-60
2023/09/22 00:08:53;;;;;;;22.08;11.02;;;;;;;13.30;100.00;99767.91;5049203;28;20044;-60
2023/09/22 00:11:18;;;;;;;22.58;11.45;;;;;;;13.32;100.00;99762.53;5049357;28;20116;-61
2023/09/22 00:13:43;;;;;;;20.15;11.00;;;;;;;13.29;100.00;99768.03;5048455;28;20731;-61
2023/09/22 00:16:09;;;;;;;23.25;11.30;;;;;;;13.32;100.00;99763.41;5048871;28;20029;-61
2023/09/22 00:18:35;;;;;;;20.63;10.40;;;;;;;13.29;100.00;99755.66;5048958;28;20032;-60
2023/09/22 00:21:00;;;;;;;18.20;10.35;;;;;;;13.26;100.00;99758.50;5049907;28;20028;-61
2023/09/22 00:23:26;;;;;;;18.42;10.30;;;;;;;13.22;100.00;99762.28;5031145;28;20017;-61
2023/09/22 00:25:51;;;;;;;16.38;9.77;;;;;;;13.21;100.00;99772.00;5049299;28;20060;-61
2023/09/22 00:28:16;;;;;;;22.42;11.48;;;;;;;13.21;100.00;99781.72;5048571;28;20032;-61
2023/09/22 00:30:42;;;;;;;25.98;13.13;;;;;;;13.31;100.00;99790.81;5047933;28;20029;-60
2023/09/22 00:33:07;;;;;;;37.05;15.32;;;;;;;13.37;100.00;99797.50;5049619;28;20021;-61
2023/09/22 00:35:32;;;;;;;51.88;19.67;;;;;;;13.38;100.00;99794.78;5048792;28;20028;-62
2023/09/22 00:37:59;;;;;;;55.95;21.40;;;;;;;13.48;100.00;99802.09;5050042;28;20383;-61
2023/09/22 00:40:24;;;;;;;54.20;20.83;;;;;;;13.54;100.00;99804.41;5049189;28;20025;-61
2023/09/22 00:43:05;;;;;;;61.28;23.80;;;;;;;13.52;100.00;99799.19;5029980;28;20395;-61
2023/09/22 00:45:31;;;;;;;58.67;24.75;;;;;;;13.51;100.00;99799.31;5048830;28;20064;-62
2023/09/22 00:47:56;;;;;;;67.90;26.15;;;;;;;13.49;100.00;99806.47;5030155;28;20309;-62
2023/09/22 00:50:21;;;;;;;64.68;26.33;;;;;;;13.49;100.00;99809.13;5049776;28;20068;-61
2023/09/22 00:52:47;;;;;;;65.22;26.60;;;;;;;13.42;100.00;99802.53;5048354;28;20029;-61
2023/09/22 00:55:12;;;;;;;62.90;27.85;;;;;;;13.33;100.00;99799.47;5029908;28;20070;-62
2023/09/22 00:57:38;;;;;;;62.83;29.35;;;;;;;13.29;100.00;99800.63;5030639;28;20075;-60
2023/09/22 01:00:04;;;;;;;60.30;27.58;;;;;;;13.25;100.00;99794.66;5047085;28;20111;-63
2023/09/22 01:02:30;;;;;;;67.22;29.33;;;;;;;13.24;100.00;99797.41;5048447;28;20472;-62
2023/09/22 01:04:55;;;;;;;73.68;30.55;;;;;;;13.13;100.00;99803.38;5049506;28;20064;-61
2023/09/22 01:07:20;;;;;;;63.83;29.35;;;;;;;13.20;100.00;99795.91;5049002;28;20121;-61
2023/09/22 01:09:46;;;;;;;65.65;28.23;;;;;;;13.24;100.00;99797.41;5047168;28;20029;-61
2023/09/22 01:12:11;;;;;;;62.17;27.83;;;;;;;13.19;100.00;99797.72;5048223;28;20132;-62
2023/09/22 01:14:36;;;;;;;69.13;30.77;;;;;;;13.17;100.00;99796.94;5047272;28;20108;-61
2023/09/22 01:17:02;;;;;;;58.55;28.17;;;;;;;13.19;100.00;99799.50;5047799;28;20025;-62
2023/09/22 01:19:27;;;;;;;62.53;29.63;;;;;;;13.16;100.00;99783.81;5048530;28;20087;-61
2023/09/22 01:21:52;;;;;;;64.97;29.67;;;;;;;13.16;100.00;99784.69;5048209;28;20379;-61
2023/09/22 01:24:18;;;;;;;63.40;30.50;;;;;;;13.17;100.00;99786.38;5045366;28;20056;-61
2023/09/22 01:26:43;;;;;;;72.18;30.45;;;;;;;13.13;100.00;99784.84;5048450;28;20021;-63
2023/09/22 01:29:08;;;;;;;64.82;29.92;;;;;;;13.18;100.00;99782.75;5047430;28;20058;-62
2023/09/22 01:31:34;;;;;;;65.72;27.80;;;;;;;13.20;100.00;99782.66;5049529;28;20494;-61
2023/09/22 01:34:02;;;;;;;66.95;29.65;;;;;;;13.16;100.00;99773.22;5048635;28;20021;-61
2023/09/22 01:36:28;;;;;;;68.18;29.45;;;;;;;13.17;100.00;99769.63;5047684;28;20056;-62
2023/09/22 01:38:54;;;;;;;75.78;30.55;;;;;;;13.17;100.00;99774.94;5048974;28;20031;-61
2023/09/22 01:41:19;;;;;;;65.93;28.80;;;;;;;13.22;100.00;99767.56;5047751;28;20095;-61
2023/09/22 01:43:45;;;;;;;62.92;27.52;;;;;;;13.23;100.00;99770.13;5047057;28;20438;-60
2023/09/22 01:46:10;;;;;;;62.85;28.23;;;;;;;13.17;100.00;99765.22;5048704;28;20029;-60
2023/09/22 01:48:35;;;;;;;58.05;26.02;;;;;;;13.19;100.00;99768.63;5030002;28;20051;-63
2023/09/22 01:51:04;;;;;;;59.50;26.80;;;;;;;13.21;100.00;99755.25;5047470;28;20067;-62
2023/09/22 01:53:30;;;;;;;59.75;26.08;;;;;;;13.21;100.00;99749.97;5030229;28;20032;-62
2023/09/22 01:55:55;;;;;;;59.15;25.85;;;;;;;13.17;100.00;99751.13;5046907;28;20033;-61
2023/09/22 01:58:21;;;;;;;59.88;25.77;;;;;;;13.20;100.00;99757.09;5028536;28;20025;-61
2023/09/22 02:00:48;;;;;;;61.72;24.73;;;;;;;13.18;100.00;99755.47;5047212;28;20569;-61
2023/09/22 02:03:14;;;;;;;56.10;23.05;;;;;;;13.18;100.00;99763.41;5046463;28;20025;-61
2023/09/22 02:05:39;;;;;;;53.10;22.80;;;;;;;13.17;100.00;99753.75;5046859;28;20047;-61
2023/09/22 02:08:05;;;;;;;51.53;21.73;;;;;;;13.13;100.00;99756.59;5048014;28;20028;-61
2023/09/22 02:10:31;;;;;;;53.30;21.17;;;;;;;13.13;100.00;99753.94;5046301;28;20039;-62
2023/09/22 02:12:56;;;;;;;46.25;20.65;;;;;;;13.11;100.00;99750.56;5047280;28;20557;-60
2023/09/22 02:15:22;;;;;;;49.33;19.63;;;;;;;13.16;100.00;99744.13;5046419;28;20438;-61
2023/09/22 02:17:47;;;;;;;43.22;17.33;;;;;;;13.16;100.00;99746.78;5045540;28;20036;-61
2023/09/22 02:20:22;;;;;;;36.25;16.33;;;;;;;13.16;100.00;99752.06;5050075;28;20024;-61
2023/09/22 02:22:53;;;;;;;40.30;15.50;;;;;;;13.17;100.00;99751.13;5036570;28;20104;-61
2023/09/22 02:25:19;;;;;;;37.45;15.93;;;;;;;13.19;100.00;99751.88;5053055;28;20036;-61
2023/09/22 02:27:45;;;;;;;33.95;15.23;;;;;;;13.20;100.00;99753.56;5034122;28;20048;-60
2023/09/22 02:30:11;;;;;;;36.55;15.30;;;;;;;13.22;100.00;99752.53;5032701;28;20028;-60
2023/09/22 02:32:41;;;;;;;39.08;14.82;;;;;;;13.24;100.00;99753.28;5043850;28;20036;-61
2023/09/22 02:35:06;;;;;;;44.47;16.90;;;;;;;13.09;100.00;99749.81;5054289;28;20032;-61
2023/09/22 02:37:31;;;;;;;37.30;15.70;;;;;;;13.20;100.00;99753.56;5053325;28;20037;-62
2023/09/22 02:39:57;;;;;;;35.42;15.73;;;;;;;13.22;100.00;99751.69;5052699;28;20989;-61
2023/09/22 02:42:23;;;;;;;45.50;17.88;;;;;;;13.22;100.00;99751.69;5054130;28;20448;-61
2023/09/22 02:44:48;;;;;;;43.85;18.15;;;;;;;13.25;100.00;99747.03;5052338;28;20063;-62
2023/09/22 02:47:14;;;;;;;39.95;16.83;;;;;;;13.27;100.00;99750.47;5052527;28;20642;-61
2023/09/22 02:49:40;;;;;;;41.42;18.70;;;;;;;13.26;100.00;99758.50;5054212;28;20522;-62
2023/09/22 02:52:05;;;;;;;46.08;19.73;;;;;;;13.26;100.00;99753.19;5052341;28;20028;-61
2023/09/22 02:54:30;;;;;;;42.22;19.52;;;;;;;13.27;100.00;99754.88;5054190;28;20036;-61
2023/09/22 02:56:56;;;;;;;55.33;20.20;;;;;;;13.25;100.00;99751.50;5053247;28;20104;-61
2023/09/22 02:59:23;;;;;;;44.58;20.08;;;;;;;13.26;100.00;99747.91;5052308;28;20116;-61
2023/09/22 03:01:49;;;;;;;46.85;20.27;;;;;;;13.25;100.00;99748.88;5053690;28;20041;-62
2023/09/22 03:04:14;;;;;;;49.60;20.52;;;;;;;13.24;100.00;99745.34;5053359;28;20033;-61
2023/09/22 03:06:40;;;;;;;49.72;21.10;;;;;;;13.22;100.00;99749.06;5052866;28;20044;-62
2023/09/22 03:09:09;;;;;;;56.42;21.42;;;;;;;13.16;100.00;99746.78;5053962;28;20028;-61
2023/09/22 03:11:35;;;;;;;53.38;21.77;;;;;;;13.16;100.00;99747.66;5053164;28;20020;-61
2023/09/22 03:14:01;;;;;;;46.83;20.10;;;;;;;13.19;100.00;99749.25;5033594;28;20064;-61
2023/09/22 03:16:27;;;;;;;51.90;21.15;;;;;;;13.14;100.00;99750.38;5053579;28;20120;-61
2023/09/22 03:18:52;;;;;;;55.53;22.83;;;;;;;13.17;100.00;99756.41;5051928;28;20043;-61
2023/09/22 03:21:22;;;;;;;54.78;22.27;;;;;;;13.13;100.00;99758.41;5052602;28;20037;-61
2023/09/22 03:23:48;;;;;;;51.38;21.75;;;;;;;13.15;100.00;99756.50;5052746;28;20025;-62
2023/09/22 03:26:15;;;;;;;50.22;20.85;;;;;;;13.14;100.00;99750.38;5052313;28;20080;-61
2023/09/22 03:28:41;;;;;;;46.17;19.83;;;;;;;13.16;100.00;99745.00;5052119;28;20111;-63
2023/09/22 03:31:06;;;;;;;46.40;19.67;;;;;;;13.19;100.00;99752.75;5052338;28;20155;-61
2023/09/22 03:33:31;;;;;;;43.30;18.58;;;;;;;13.21;100.00;99756.13;5049455;28;20025;-61
2023/09/22 03:35:57;;;;;;;41.50;18.15;;;;;;;13.23;100.00;99753.38;5049123;28;20106;-61
2023/09/22 03:38:22;;;;;;;38.35;16.70;;;;;;;13.25;100.00;99756.81;5031834;28;20067;-59
2023/09/22 03:40:48;;;;;;;37.13;16.10;;;;;;;13.27;100.00;99753.09;5031008;28;20040;-61
2023/09/22 03:43:13;;;;;;;34.50;15.63;;;;;;;13.21;100.00;99745.53;5031560;28;20021;-61
2023/09/22 03:45:39;;;;;;;42.85;15.27;;;;;;;13.21;100.00;99748.19;5050594;28;20053;-62
2023/09/22 03:48:05;;;;;;;37.00;14.93;;;;;;;13.18;100.00;99744.91;5048526;28;20518;-60
2023/09/22 03:50:30;;;;;;;35.97;15.10;;;;;;;13.19;100.00;99736.88;5049990;28;20120;-62
2023/09/22 03:52:56;;;;;;;36.95;14.68;;;;;;;13.14;100.00;99745.09;5049899;28;20025;-62
2023/09/22 03:55:21;;;;;;;38.55;14.40;;;;;;;13.11;100.00;99739.13;5030928;28;20490;-61
2023/09/22 03:57:47;;;;;;;31.50;13.77;;;;;;;13.14;100.00;99739.81;5049682;28;20035;-61
2023/09/22 04:00:19;;;;;;;31.52;13.98;;;;;;;13.08;100.00;99739.31;5048173;28;20029;-62
2023/09/22 04:02:45;;;;;;;29.08;13.50;;;;;;;13.08;100.00;99740.19;5049360;28;20036;-61
2023/09/22 04:05:12;;;;;;;38.08;14.07;;;;;;;13.05;100.00;99748.31;5050757;28;20051;-60
2023/09/22 04:07:38;;;;;;;29.23;13.95;;;;;;;13.01;100.00;99741.50;5050016;28;20033;-60
2023/09/22 04:10:04;;;;;;;29.90;13.75;;;;;;;13.06;100.00;99746.53;5049531;28;20033;-60
2023/09/22 04:12:30;;;;;;;34.03;14.20;;;;;;;13.09;100.00;99749.81;5051088;28;20048;-60
2023/09/22 04:14:56;;;;;;;36.08;14.65;;;;;;;13.15;100.00;99745.91;5048395;28;20112;-60
2023/09/22 04:17:21;;;;;;;32.95;15.20;;;;;;;13.24;100.00;99752.44;5048776;28;20115;-61
2023/09/22 04:19:49;;;;;;;34.63;14.40;;;;;;;13.33;100.00;99751.03;5049174;28;20029;-61
2023/09/22 04:22:16;;;;;;;28.20;13.73;;;;;;;13.37;100.00;99745.41;5048078;28;20391;-61
2023/09/22 04:24:47;;;;;;;30.58;12.82;;;;;;;13.34;100.00;99745.63;5049110;28;20116;-62
2023/09/22 04:27:16;;;;;;;25.02;12.45;;;;;;;13.30;100.00;99754.69;5031189;28;20057;-63
2023/09/22 04:29:41;;;;;;;;;;;;;;;13.23;100.00;99756.03;5047664;28;20060;-61
2023/09/22 04:32:06;;;;;;;31.30;12.15;;;;;;;13.16;100.00;99757.38;5048626;28;20331;-61
2023/09/22 04:34:32;;;;;;;27.70;12.82;;;;;;;13.09;100.00;99757.75;5048542;28;20094;-63
2023/09/22 04:36:58;;;;;;;27.65;13.18;;;;;;;13.05;100.00;99756.22;5047344;28;20017;-62
2023/09/22 04:39:24;;;;;;;26.05;12.55;;;;;;;13.00;100.00;99758.31;5048785;28;20455;-62
2023/09/22 04:41:49;;;;;;;28.92;12.95;;;;;;;12.97;100.00;99761.13;5048067;28;20037;-61
2023/09/22 04:44:15;;;;;;;26.10;12.85;;;;;;;12.97;100.00;99758.47;5045244;28;20032;-60
2023/09/22 04:46:41;;;;;;;29.20;13.80;;;;;;;13.01;100.00;99760.03;5049003;28;20036;-62
2023/09/22 04:49:07;;;;;;;30.08;14.00;;;;;;;13.02;100.00;99762.56;5048292;28;20025;-61
2023/09/22 04:51:32;;;;;;;27.05;14.52;;;;;;;13.10;100.00;99763.88;5048513;28;20078;-61
2023/09/22 04:53:57;;;;;;;29.65;13.88;;;;;;;13.17;100.00;99767.00;5048835;28;20109;-60
2023/09/22 04:56:23;;;;;;;23.38;13.68;;;;;;;13.25;100.00;99762.91;5047385;28;20604;-63
2023/09/22 04:58:50;;;;;;;25.95;14.13;;;;;;;13.35;100.00;99765.84;5047556;28;20622;-62
2023/09/22 05:01:15;;;;;;;28.10;13.85;;;;;;;13.42;100.00;99757.53;5047962;28;20024;-62
2023/09/22 05:03:40;;;;;;;27.85;14.10;;;;;;;13.52;100.00;99754.22;5047897;28;20422;-61
2023/09/22 05:06:09;;;;;;;20.65;13.23;;;;;;;13.57;100.00;99761.88;5047786;28;20371;-61
2023/09/22 05:08:36;;;;;;;17.20;11.73;;;;;;;13.56;100.00;99775.19;5013324;28;20425;-61
2023/09/22 05:11:06;;;;;;;23.80;11.93;;;;;;;13.57;100.00;99771.63;5042158;28;20278;-61
2023/09/22 05:13:32;;;;;;;18.75;11.48;;;;;;;13.49;100.00;99786.16;5046291;28;20056;-63
2023/09/22 05:16:09;;;;;;;17.58;10.85;;;;;;;13.41;100.00;99777.84;5046659;28;20033;-61
2023/09/22 05:18:35;;;;;;;17.30;10.25;;;;;;;13.35;100.00;99784.38;5029465;28;20056;-61
2023/09/22 05:21:01;;;;;;;16.45;10.30;;;;;;;13.34;100.00;99781.81;5027205;28;20029;-59
2023/09/22 05:23:28;;;;;;;16.30;9.98;;;;;;;13.22;100.00;99783.44;5034835;28;20909;-60
2023/09/22 05:25:53;;;;;;;19.90;9.40;;;;;;;13.22;100.00;99783.44;5027827;28;20038;-62
2023/09/22 05:28:19;;;;;;;15.63;9.32;;;;;;;13.25;100.00;99785.91;5033211;28;20482;-62
2023/09/22 05:30:45;;;;;;;22.40;10.90;;;;;;;13.12;100.00;99777.84;5047656;28;20037;-63
2023/09/22 05:33:10;;;;;;;15.55;10.20;;;;;;;13.17;100.00;99786.38;5047161;28;20024;-61
2023/09/22 05:35:36;;;;;;;18.75;10.43;;;;;;;13.21;100.00;99781.72;5029279;28;20528;-61
2023/09/22 05:38:03;;;;;;;18.60;10.27;;;;;;;13.29;100.00;99792.69;5027909;28;20043;-61
2023/09/22 05:40:29;;;;;;;18.08;9.98;;;;;;;13.37;100.00;99792.22;5046716;28;20082;-62
2023/09/22 05:42:54;;;;;;;16.35;9.40;;;;;;;13.44;100.00;99787.38;5027741;28;20024;-61
2023/09/22 05:45:20;;;;;;;16.23;9.20;;;;;;;13.38;100.00;99791.25;5046582;28;20037;-61
2023/09/22 05:47:45;;;;;;;13.55;8.15;;;;;;;13.48;100.00;99796.81;5029414;28;20561;-61
2023/09/22 05:50:11;;;;;;;14.40;8.50;;;;;;;13.52;100.00;99798.38;5045349;28;20495;-62
2023/09/22 05:52:39;;;;;;;13.13;8.13;;;;;;;13.57;100.00;99788.34;5045705;28;20411;-61
2023/09/22 05:55:05;;;;;;;15.83;7.53;;;;;;;13.55;100.00;99800.84;5028071;28;20029;-60
2023/09/22 05:57:33;;;;;;;9.90;6.75;;;;;;;13.60;100.00;99806.66;5045191;28;20340;-60
2023/09/22 05:59:59;;;;;;;10.82;7.30;;;;;;;13.68;100.00;99806.19;5029722;28;20037;-62
2023/09/22 06:02:25;;;;;;;12.40;6.15;;;;;;;13.70;100.00;99808.75;5046674;28;20035;-60
2023/09/22 06:04:52;;;;;;;8.77;5.10;;;;;;;13.61;100.00;99805.72;5045669;28;20468;-60
2023/09/22 06:07:20;;;;;;;10.88;5.13;;;;;;;13.76;100.00;99818.94;5047296;28;20104;-61
2023/09/22 06:09:45;;;;;;;8.30;4.38;;;;;;;13.88;100.00;99806.72;5045956;28;20018;-61
2023/09/22 06:12:11;;;;;;;7.22;4.25;;;;;;;13.94;100.00;99822.19;5047687;28;20055;-61
2023/09/22 06:14:36;;;;;;;8.60;4.13;;;;;;;13.95;100.00;99817.75;5045682;28;20021;-61
2023/09/22 06:17:02;;;;;;;6.93;4.20;;;;;;;13.93;100.00;99817.00;5046501;28;20364;-61
2023/09/22 06:19:27;;;;;;;8.80;4.13;;;;;;;14.02;100.00;99824.34;5046086;28;20033;-61
2023/09/22 06:21:52;;;;;;;9.68;4.28;;;;;;;14.00;100.00;99816.50;5046458;28;20032;-62
2023/09/22 06:24:20;;;;;;;7.18;3.40;;;;;;;14.04;100.00;99814.50;5046127;28;20052;-62
2023/09/22 06:26:46;;;;;;;7.25;4.43;;;;;;;14.09;100.00;99822.16;5046228;28;20490;-62
2023/09/22 06:29:12;;;;;;;6.72;3.50;;;;;;;14.12;100.00;99820.13;5046404;28;20049;-62
2023/09/22 06:31:37;;;;;;;8.40;3.80;;;;;;;14.22;100.00;99819.53;5028393;28;20827;-60
2023/09/22 06:34:04;;;;;;;10.20;3.20;;;;;;;14.33;100.00;99827.63;5045910;28;20193;-59
2023/09/22 06:36:30;;;;;;;4.68;2.45;;;;;;;14.31;100.00;99829.53;5029854;28;20407;-61
2023/09/22 06:38:55;;;;;;;3.38;2.40;;;;;;;14.34;100.00;99844.38;5044879;28;20036;-61
2023/09/22 06:41:21;;;;;;;6.28;2.45;;;;;;;14.42;100.00;99841.25;5046581;28;20032;-60
2023/09/22 06:43:46;;;;;;;2.42;1.90;;;;;;;14.47;100.00;99844.41;5045779;28;20079;-62
2023/09/22 06:46:11;;;;;;;4.75;2.17;;;;;;;14.35;100.00;99854.03;5046169;28;20079;-62
2023/09/22 06:48:37;;;;;;;2.33;1.88;;;;;;;14.38;100.00;99848.53;5046972;28;20395;-61
2023/09/22 06:51:02;;;;;;;5.30;2.20;;;;;;;14.35;100.00;99840.78;5045588;28;20069;-61
2023/09/22 06:53:28;;;;;;;2.50;1.90;;;;;;;14.36;100.00;99848.63;5045910;28;20065;-60
2023/09/22 06:56:03;;;;;;;3.78;2.17;;;;;;;14.45;100.00;99841.03;5029160;28;20112;-62
2023/09/22 06:58:29;;;;;;;4.55;2.30;;;;;;;14.50;100.00;99850.38;5045060;28;20037;-61
2023/09/22 07:00:56;;;;;;;3.80;1.80;;;;;;;14.54;100.00;99848.34;5045759;28;20483;-62
2023/09/22 07:03:21;;;;;;;3.70;1.92;;;;;;;14.57;100.00;99865.88;5047099;28;20100;-61
2023/09/22 07:05:47;;;;;;;3.92;2.15;;;;;;;14.71;100.00;99862.28;5045353;28;20120;-60
2023/09/22 07:08:12;;;;;;;5.40;1.90;;;;;;;14.62;100.00;99859.31;5049921;28;20032;-61
2023/09/22 07:10:38;;;;;;;3.47;1.77;;;;;;;14.68;100.00;99866.00;5033123;28;20045;-61
2023/09/22 07:13:04;;;;;;;4.72;1.80;;;;;;;14.77;100.00;99869.84;5049348;28;20455;-61
2023/09/22 07:15:29;;;;;;;4.40;1.90;;;;;;;14.78;100.00;99880.38;5027979;28;20464;-60
2023/09/22 07:17:54;;;;;;;2.28;1.80;;;;;;;14.90;100.00;99878.69;5050714;28;20029;-63
2023/09/22 07:20:21;;;;;;;2.80;1.50;;;;;;;15.03;100.00;99885.81;5048883;28;20036;-61
2023/09/22 07:22:47;;;;;;;3.70;1.60;;;;;;;14.99;100.00;99889.66;5049801;28;20025;-62
2023/09/22 07:25:13;;;;;;;3.10;1.60;;;;;;;15.09;100.00;99893.38;5049575;28;20106;-62
2023/09/22 07:27:41;;;;;;;2.67;1.30;;;;;;;15.10;100.00;99896.84;5048186;28;20060;-61
2023/09/22 07:30:09;;;;;;;1.75;1.27;;;;;;;15.20;100.00;99894.44;5048703;28;20209;-58
2023/09/22 07:32:35;;;;;;;1.83;1.00;;;;;;;15.24;100.00;99901.22;5048354;28;20025;-60
2023/09/22 07:35:01;;;;;;;3.70;1.00;;;;;;;15.27;100.00;99903.66;5049756;28;20468;-58
2023/09/22 07:37:27;;;;;;;2.20;1.05;;;;;;;15.21;100.00;99901.44;5049031;28;20025;-59
2023/09/22 07:39:52;;;;;;;5.82;1.08;;;;;;;15.25;100.00;99908.22;5048032;28;20025;-58
2023/09/22 07:42:18;;;;;;;2.28;1.30;;;;;;;15.22;100.00;99914.59;5047871;28;20028;-61
2023/09/22 07:44:43;;;;;;;3.17;1.42;;;;;;;15.18;100.00;99904.28;5048096;28;20044;-58
2023/09/22 07:47:14;;;;;;;3.90;1.17;;;;;;;15.22;100.00;99909.28;5048223;28;20032;-62
2023/09/22 07:49:40;;;;;;;6.07;1.30;;;;;;;15.06;100.00;99912.16;5049754;28;20036;-59
2023/09/22 07:52:09;;;;;;;3.35;1.23;;;;;;;15.22;100.00;99906.63;5047485;28;20483;-59
2023/09/22 07:54:35;;;;;;;3.95;1.60;;;;;;;15.28;100.00;99918.63;5049281;28;20040;-58
2023/09/22 07:57:01;;;;;;;5.22;1.50;;;;;;;15.31;100.00;99918.44;5047463;28;20383;-57
2023/09/22 07:59:29;;;;;;;3.10;1.30;;;;;;;15.43;100.00;99916.72;5048726;28;20159;-59
2023/09/22 08:01:54;;;;;;;1.63;1.40;;;;;;;15.77;100.00;99934.75;5048506;28;20061;-58
2023/09/22 08:04:20;;;;;;;2.67;1.13;;;;;;;15.78;100.00;99933.81;5049195;28;20158;-59
2023/09/22 08:06:46;;;;;;;1.58;1.33;;;;;;;15.89;100.00;99931.22;5030162;28;20336;-60
2023/09/22 08:09:13;;;;;;;4.75;1.38;;;;;;;15.83;100.00;99936.97;5047844;28;20620;-58
2023/09/22 08:11:38;;;;;;;4.00;1.38;;;;;;;15.90;100.00;99934.75;5049267;28;20060;-60
2023/09/22 08:14:03;;;;;;;2.95;1.60;;;;;;;15.72;100.00;99945.72;5047448;28;20111;-60
2023/09/22 08:16:29;;;;;;;1.67;1.33;;;;;;;15.64;100.00;99943.59;5047893;28;20056;-60
2023/09/22 08:18:54;;;;;;;2.35;1.50;;;;;;;15.54;100.00;99948.69;5047850;28;20039;-59
2023/09/22 08:21:21;;;;;;;2.42;1.55;;;;;;;15.48;100.00;99950.91;5048178;28;20025;-60
2023/09/22 08:23:46;;;;;;;3.17;1.90;;;;;;;15.36;100.00;99950.81;5048452;28;20028;-59
2023/09/22 08:26:17;;;;;;;3.75;1.70;;;;;;;15.58;100.00;99951.13;5048362;28;20036;-58
2023/09/22 08:28:46;;;;;;;2.53;1.40;;;;;;;15.72;100.00;99960.78;5042231;28;20384;-60
2023/09/22 08:31:11;;;;;;;;;;;;;;;15.87;100.00;99962.34;5049435;28;20013;-59
2023/09/22 08:33:37;;;;;;;4.10;1.50;;;;;;;15.89;100.00;99962.25;5046699;28;20059;-60
2023/09/22 08:36:03;;;;;;;3.17;1.40;;;;;;;16.03;100.00;99956.00;5046371;28;20558;-60
2023/09/22 08:38:30;;;;;;;3.40;1.70;;;;;;;16.08;100.00;99963.66;5047487;28;20178;-60
2023/09/22 08:40:56;;;;;;;1.98;1.67;;;;;;;16.33;100.00;99973.38;5046532;28;20017;-60
2023/09/22 08:43:23;;;;;;;3.88;1.70;;;;;;;16.38;100.00;99971.22;5046210;28;20178;-59
2023/09/22 08:45:49;;;;;;;5.28;1.60;;;;;;;16.61;100.00;99981.13;5030367;28;20047;-60
2023/09/22 08:48:14;;;;;;;7.43;1.50;;;;;;;16.73;100.00;99966.06;5046046;28;20468;-61
2023/09/22 08:50:39;;;;;;;2.75;1.42;;;;;;;16.62;100.00;99983.69;5029619;28;20029;-60
2023/09/22 08:53:05;;;;;;;1.90;1.23;;;;;;;16.44;100.00;99987.69;5029453;28;20052;-60
2023/09/22 08:55:30;;;;;;;5.07;1.67;;;;;;;16.08;100.00;99980.44;5042246;28;20036;-59
2023/09/22 08:57:55;;;;;;;4.50;1.50;;;;;;;16.01;100.00;99989.78;5021234;28;20016;-58
2023/09/22 09:00:26;;;;;;;4.18;1.60;;;;;;;15.88;100.00;99990.63;5047900;28;20490;-60
2023/09/22 09:02:55;;;;;;;2.00;1.38;;;;;;;15.88;100.00;99985.31;5028149;28;20040;-60
2023/09/22 09:05:32;;;;;;;1.85;1.20;;;;;;;15.84;100.00;99983.84;5063605;28;20031;-60
2023/09/22 09:08:13;;;;;;;3.00;1.30;;;;;;;16.00;100.00;99980.13;5066203;28;20032;-61
2023/09/22 09:10:40;;;;;;;3.22;1.33;;;;;;;16.20;100.00;99989.34;5064763;28;20029;-60
2023/09/22 09:13:06;;;;;;;2.47;1.42;;;;;;;16.32;100.00;99992.94;5065160;28;20049;-59
2023/09/22 09:15:48;;;;;;;1.95;1.40;;;;;;;16.79;100.00;100001.06;5067677;28;20150;-63
2023/09/22 09:18:18;;;;;;;3.95;1.30;;;;;;;16.93;100.00;99999.19;5065604;28;20454;-61
2023/09/22 09:20:48;;;;;;;1.70;1.08;;;;;;;16.84;100.00;100002.53;5067920;28;20031;-61
2023/09/22 09:23:15;;;;;;;2.05;1.40;;;;;;;16.90;100.00;100010.94;5066767;28;20104;-60
2023/09/22 09:25:49;;;;;;;2.55;1.27;;;;;;;16.93;100.00;100008.03;5057019;28;20025;-59
2023/09/22 09:28:16;;;;;;;1.17;1.10;;;;;;;16.64;100.00;100012.81;5047257;28;20468;-60
2023/09/22 09:30:48;;;;;;;2.45;1.20;;;;;;;16.41;100.00;100013.53;5046261;28;20033;-62
2023/09/22 09:33:14;;;;;;;5.15;1.33;;;;;;;16.24;100.00;100011.22;5059258;28;20032;-61
2023/09/22 09:35:41;;;;;;;3.50;1.40;;;;;;;16.23;100.00;100022.84;5065856;28;20394;-60
2023/09/22 09:38:09;;;;;;;3.13;1.38;;;;;;;16.16;100.00;100012.63;5048693;28;20039;-60
2023/09/22 09:40:38;;;;;;;2.97;1.20;;;;;;;16.34;100.00;100014.94;5064894;28;20390;-60
2023/09/22 09:43:12;;;;;;;2.40;1.48;;;;;;;16.29;100.00;100015.25;5061516;28;20035;-60
2023/09/22 09:45:57;;;;;;;2.08;1.35;;;;;;;16.57;100.00;100027.53;5047878;28;20134;-59
2023/09/22 09:48:24;;;;;;;7.57;1.60;;;;;;;16.78;100.00;100019.81;5046831;28;20396;-58
2023/09/22 09:50:51;;;;;;;2.08;1.25;;;;;;;16.99;100.00;100017.38;5060318;28;20032;-63
2023/09/22 09:53:35;;;;;;;3.72;1.50;;;;;;;17.11;100.00;100018.31;5060087;28;20494;-60
2023/09/22 09:56:02;;;;;;;3.42;1.30;;;;;;;17.23;100.00;100028.97;5066770;28;20601;-58
2023/09/22 09:58:31;;;;;;;7.63;1.35;;;;;;;17.33;100.00;100027.31;5065282;28;20028;-60
2023/09/22 10:00:57;;;;;;;3.33;1.00;;;;;;;17.54;100.00;100031.97;5063751;28;20558;-59
2023/09/22 10:03:24;;;;;;;1.75;1.30;;;;;;;17.51;100.00;100026.88;5066674;28;20085;-60
2023/09/22 10:05:51;;;;;;;2.28;1.30;;;;;;;17.45;100.00;100032.69;5065096;28;20039;-60
2023/09/22 10:08:19;;;;;;;1.75;1.05;;;;;;;17.28;100.00;100035.66;5065568;28;20032;-61
2023/09/22 10:10:46;;;;;;;4.00;1.40;;;;;;;17.49;100.00;100044.81;5066489;28;20027;-59
2023/09/22 10:13:11;;;;;;;1.88;1.10;;;;;;;17.57;100.00;100037.06;5063554;28;20040;-61
2023/09/22 10:15:52;;;;;;;2.45;1.42;;;;;;;17.56;100.00;100043.38;5043234;28;20025;-59
2023/09/22 10:18:18;;;;;;;3.15;1.17;;;;;;;17.74;100.00;100037.59;5046857;28;20025;-61
2023/09/22 10:20:47;;;;;;;2.03;1.17;;;;;;;17.91;100.00;100039.78;5029310;28;20035;-62
2023/09/22 10:23:27;;;;;;;2.53;1.10;;;;;;;18.05;100.00;100037.88;5052113;28;20439;-59
2023/09/22 10:26:04;;;;;;;6.53;4.80;;;;;;;18.06;100.00;100036.88;5027245;28;20495;-60
2023/09/22 10:28:30;;;;;;;1.92;0.95;;;;;;;17.96;100.00;100054.56;5025567;28;20036;-60
2023/09/22 10:30:58;;;;;;;2.80;1.10;;;;;;;17.96;100.00;100041.25;5057119;28;20387;-60
2023/09/22 10:33:26;;;;;;;1.50;1.00;;;;;;;18.05;100.00;100038.72;5066245;28;20032;-59
2023/09/22 10:35:53;;;;;;;1.40;0.93;;;;;;;17.99;100.00;100046.34;5052294;28;20029;-60
2023/09/22 10:38:20;;;;;;;3.22;1.02;;;;;;;17.89;100.00;100047.06;5046452;28;20021;-59
2023/09/22 10:41:01;;;;;;;1.85;1.02;;;;;;;18.00;100.00;100048.06;5030538;28;20029;-61
2023/09/22 10:43:27;;;;;;;2.78;1.00;;;;;;;18.00;100.00;100042.72;5070351;28;20025;-60
2023/09/22 10:45:53;;;;;;;3.47;1.08;;;;;;;18.01;100.00;100049.75;5070180;28;20063;-59
2023/09/22 10:48:19;;;;;;;4.07;1.15;;;;;;;18.26;99.85;100055.81;5067719;28;20058;-60
2023/09/22 10:50:52;;;;;;;1.33;0.70;;;;;;;18.46;98.89;100054.25;5071138;28;20503;-60
2023/09/22 10:53:17;;;;;;;2.35;0.88;;;;;;;18.66;96.93;100057.97;5068940;28;20523;-59
2023/09/22 10:55:44;;;;;;;1.98;0.70;;;;;;;18.61;94.40;100062.00;5069618;28;20070;-60
2023/09/22 10:58:16;;;;;;;1.73;0.80;;;;;;;18.43;93.72;100060.66;5070141;28;20021;-58
2023/09/22 11:01:08;;;;;;;1.98;1.00;;;;;;;18.48;96.36;100064.81;5067858;28;20465;-59
2023/09/22 11:03:35;;;;;;;3.35;0.95;;;;;;;18.82;94.24;100051.41;5049800;28;20040;-59
2023/09/22 11:06:06;;;;;;;3.05;0.80;;;;;;;18.73;92.05;100060.16;5065787;28;20096;-59
2023/09/22 11:08:32;;;;;;;2.80;1.30;;;;;;;18.88;92.17;100053.56;5069893;28;20471;-59
2023/09/22 11:10:57;;;;;;;2.92;1.77;;;;;;;18.97;94.31;100056.44;5070316;28;20023;-58
2023/09/22 11:13:23;;;;;;;2.15;0.90;;;;;;;19.18;90.97;100060.03;5062387;28;20037;-59
2023/09/22 11:15:59;;;;;;;3.78;0.80;;;;;;;19.21;88.54;100074.13;5070742;28;20079;-61